Time;durP1;ratioP1;P1;durP2;ratioP2;P2;SDS_P1;SDS_P2;PMS_P1;PMS_P2;Temp;Humidity;BMP_temperature;BMP_pressure;BME280_temperature;BME280_humidity;BME280_pressure;Samples;Min_cycle;Max_cycle;Signal;HPM_P1;HPM_P2
2022/07/30 05:57:44;;;;;;;;;;;;;;;18.34;64.29;101073.06;5076596;23;3655;-95
2022/07/30 06:00:10;;;;;;;;;;;;;;;18.34;64.21;101075.78;4939646;29;1211;-95
2022/07/30 06:02:38;;;;;;;;;;;;;;;18.33;64.04;101071.44;4935495;29;1215;-94
2022/07/30 06:05:04;;;;;;;;;;;;;;;18.33;63.89;101070.63;4923290;29;1270;-90
2022/07/30 06:07:31;;;;;;;;;;;;;;;18.33;63.94;101067.91;4919960;29;1759;-92
2022/07/30 06:09:59;;;;;;;;;;;;;;;18.33;64.16;101067.91;4921146;29;1788;-93
2022/07/30 06:12:25;;;;;;;;;;;;;;;18.33;63.90;101065.16;4920967;29;1903;-91
2022/07/30 06:14:51;;;;;;;;;;;;;;;18.31;63.97;101068.13;4921303;29;1623;-91
2022/07/30 06:17:18;;;;;;;;;;;;;;;18.31;64.11;101057.22;4921441;29;1251;-92
2022/07/30 06:19:44;;;;;;;;;;;;;;;18.32;64.04;101060.78;4915739;29;5170;-92
2022/07/30 06:22:10;;;;;;;;;;;;;;;18.31;63.84;101051.78;4920984;29;1302;-93
2022/07/30 06:24:37;;;;;;;;;;;;;;;18.30;63.81;101061.06;4920891;29;1307;-91
2022/07/30 06:27:03;;;;;;;;;;;;;;;18.29;63.90;101055.84;4922509;29;1544;-92
2022/07/30 06:29:29;;;;;;;;;;;;;;;18.30;63.96;101060.22;4920754;29;1342;-90
2022/07/30 06:31:56;;;;;;;;;;;;;;;18.29;63.96;101058.56;4916472;29;1984;-90
2022/07/30 06:34:22;;;;;;;;;;;;;;;18.29;64.03;101051.22;4921123;29;1596;-90
2022/07/30 06:36:48;;;;;;;;;;;;;;;18.28;63.75;101054.22;4920904;29;1467;-90
2022/07/30 06:39:15;;;;;;;;;;;;;;;18.28;63.72;101055.03;4909453;29;1625;-91
2022/07/30 06:41:41;;;;;;;;;;;;;;;18.28;63.97;101049.56;4912355;29;1896;-91
2022/07/30 06:44:07;;;;;;;;;;;;;;;18.28;63.68;101048.75;4920875;29;1455;-91
2022/07/30 06:46:34;;;;;;;;;;;;;;;18.27;63.70;101047.13;4920934;29;1175;-91
2022/07/30 06:49:00;;;;;;;;;;;;;;;18.29;63.68;101047.66;4909503;29;1419;-91
2022/07/30 06:51:27;;;;;;;;;;;;;;;18.27;63.58;101052.56;4929061;29;1961;-89
2022/07/30 06:53:53;;;;;;;;;;;;;;;18.29;63.77;101058.56;4923281;29;1506;-91
2022/07/30 06:56:20;;;;;;;;;;;;;;;18.28;63.40;101054.22;4928421;29;1154;-88
2022/07/30 06:58:46;;;;;;;;;;;;;;;18.28;63.78;101051.47;4932154;29;2050;-92
2022/07/30 07:01:12;;;;;;;;;;;;;;;18.28;63.53;101055.03;4930031;29;1104;-93
2022/07/30 07:03:39;;;;;;;;;;;;;;;18.27;63.80;101049.84;4925117;29;2594;-91
2022/07/30 07:06:05;;;;;;;;;;;;;;;18.28;63.72;101048.75;4920870;29;1719;-90
2022/07/30 07:08:31;;;;;;;;;;;;;;;18.26;63.57;101049.00;4919885;29;1688;-91
2022/07/30 07:10:58;;;;;;;;;;;;;;;18.27;63.68;101050.66;4923548;29;1979;-90
2022/07/30 07:13:24;;;;;;;;;;;;;;;18.28;63.46;101051.47;4928496;29;1270;-90
2022/07/30 07:15:50;;;;;;;;;;;;;;;18.27;63.47;101050.66;4936152;29;4806;-90
2022/07/30 07:18:17;;;;;;;;;;;;;;;18.26;63.49;101046.28;4927701;29;4511;-91
2022/07/30 07:20:45;;;;;;;;;;;;;;;18.26;63.49;101054.44;4934373;29;1907;-95
2022/07/30 08:50:41;;;;;;;;;;;;;;;18.32;63.78;101011.69;4938809;29;1883;-95
2022/07/30 09:28:04;;;;;;;;;;;;;;;18.43;63.34;100977.97;4960675;28;1327;-95
2022/07/30 09:30:31;;;;;;;;;;;;;;;18.43;63.14;100971.72;4946710;28;1334;-96
2022/07/30 09:33:07;;;;;;;;;;;;;;;18.45;63.27;100980.47;4981173;23;3538;-96
2022/07/30 09:45:07;;;;;;;;;;;;;;;18.47;63.51;100976.38;4956632;28;1386;-94
2022/07/30 09:50:27;;;;;;;;;;;;;;;18.50;63.49;100961.38;4942429;29;1036;-95
2022/07/30 09:55:45;;;;;;;;;;;;;;;18.51;63.37;100968.50;4941164;29;1413;-95
2022/07/30 09:58:13;;;;;;;;;;;;;;;18.50;63.60;100956.78;4939114;29;1361;-95
2022/07/30 10:00:39;;;;;;;;;;;;;;;18.52;63.54;100965.50;4936688;29;1188;-94
2022/07/30 10:06:13;;;;;;;;;;;;;;;18.54;63.71;100954.34;5231062;23;2101;-94
2022/07/30 10:09:07;;;;;;;;;;;;;;;18.53;63.59;100953.53;5178129;23;3731;-94
2022/07/30 10:19:52;;;;;;;;;;;;;;;18.61;63.53;100958.47;4941910;29;1381;-96
2022/07/30 10:22:27;;;;;;;;;;;;;;;18.61;63.73;100953.00;4927537;29;1511;-92
2022/07/30 10:24:54;;;;;;;;;;;;;;;18.63;63.77;100958.22;4926298;29;1155;-93
2022/07/30 10:27:24;;;;;;;;;;;;;;;18.59;63.60;100949.75;4933401;29;1168;-94
2022/07/30 10:32:52;;;;;;;;;;;;;;;18.61;63.64;100955.72;4852431;27;9138456;-92
2022/07/30 10:38:05;;;;;;;;;;;;;;;18.67;63.68;100955.78;5155336;27;1534;-95
2022/07/30 10:43:13;;;;;;;;;;;;;;;18.68;64.06;100947.34;5045531;23;1997;-95
2022/07/30 10:53:57;;;;;;;;;;;;;;;18.73;63.84;100941.06;4957808;28;1613;-93
2022/07/30 10:56:24;;;;;;;;;;;;;;;18.75;63.76;100941.66;4961871;28;1344;-94
2022/07/30 10:58:50;;;;;;;;;;;;;;;18.73;63.86;100941.06;4958232;28;1320;-93
2022/07/30 11:01:17;;;;;;;;;;;;;;;18.72;63.83;100932.06;4966610;28;1520;-94
2022/07/30 11:03:44;;;;;;;;;;;;;;;18.68;63.55;100925.50;4970491;28;1560;-92
2022/07/30 11:06:10;;;;;;;;;;;;;;;18.72;63.88;100923.88;4965560;28;1541;-93
2022/07/30 11:11:17;;;;;;;;;;;;;;;18.76;64.09;100916.84;4971631;28;1887;-95
2022/07/30 11:16:31;;;;;;;;;;;;;;;18.78;63.94;100922.84;4971882;28;1328;-94
2022/07/30 11:18:58;;;;;;;;;;;;;;;18.81;64.18;100925.03;4955022;28;4499;-93
2022/07/30 11:24:07;;;;;;;;;;;;;;;18.84;64.06;100921.78;4972481;28;1273;-95
2022/07/30 11:26:33;;;;;;;;;;;;;;;18.86;64.22;100918.81;4968931;28;1320;-93
2022/07/30 11:29:00;;;;;;;;;;;;;;;18.89;64.40;100922.91;4966947;28;1541;-94
2022/07/30 11:31:27;;;;;;;;;;;;;;;18.90;64.50;100921.81;4972785;28;1903;-94
2022/07/30 11:34:03;;;;;;;;;;;;;;;18.92;64.54;100923.19;4978779;28;1317;-95
2022/07/30 11:36:37;;;;;;;;;;;;;;;18.89;64.59;100918.28;4972624;28;1396;-95
2022/07/30 11:39:09;;;;;;;;;;;;;;;18.90;64.62;100919.09;4989481;28;916;-95
2022/07/30 11:44:17;;;;;;;;;;;;;;;18.90;64.57;100909.00;4968946;28;1549;-93
2022/07/30 11:46:43;;;;;;;;;;;;;;;18.95;64.64;100913.66;4965753;28;1848;-95
2022/07/30 11:51:56;;;;;;;;;;;;;;;19.01;64.62;100899.75;4952916;28;2221;-95
2022/07/30 11:54:22;;;;;;;;;;;;;;;19.02;64.79;100906.03;4959885;28;2084;-94
2022/07/30 11:56:49;;;;;;;;;;;;;;;19.03;64.50;100905.78;4958249;28;1446;-94
2022/07/30 11:59:15;;;;;;;;;;;;;;;19.04;64.87;100906.59;4969860;28;1269;-93
2022/07/30 12:01:42;;;;;;;;;;;;;;;19.04;64.56;100901.94;4950921;28;1609;-93
2022/07/30 12:04:08;;;;;;;;;;;;;;;19.06;64.94;100898.97;4951148;29;1212;-94
2022/07/30 12:06:37;;;;;;;;;;;;;;;19.07;64.75;100897.88;4949618;28;1788;-95
2022/07/30 12:09:04;;;;;;;;;;;;;;;19.09;65.13;100909.34;4968324;28;1588;-95
2022/07/30 12:11:30;;;;;;;;;;;;;;;19.11;64.96;100892.69;4964228;28;1891;-93
2022/07/30 12:13:58;;;;;;;;;;;;;;;19.11;64.96;100898.97;4968482;28;1215;-94
2022/07/30 12:16:24;;;;;;;;;;;;;;;19.14;64.93;100901.16;4963392;28;2062;-93
2022/07/30 12:18:51;;;;;;;;;;;;;;;19.12;65.19;100900.63;4974839;28;1340;-96
2022/07/30 12:21:20;;;;;;;;;;;;;;;19.09;65.13;100895.69;4971638;28;1678;-94
2022/07/30 12:23:47;;;;;;;;;;;;;;;19.08;64.74;100894.03;4961402;29;1732;-94
2022/07/30 12:26:13;;;;;;;;;;;;;;;19.04;64.41;100901.13;4960417;29;1248;-94
2022/07/30 12:28:40;;;;;;;;;;;;;;;19.08;65.02;100888.59;4954124;29;1894;-94
2022/07/30 12:31:07;;;;;;;;;;;;;;;19.12;64.64;100894.31;4948724;28;1910;-94
2022/07/30 12:33:33;;;;;;;;;;;;;;;19.15;64.85;100888.31;4969647;28;1773;-94
2022/07/30 12:36:00;;;;;;;;;;;;;;;19.18;65.15;100887.81;4968435;28;1657;-94
2022/07/30 12:38:26;;;;;;;;;;;;;;;19.21;64.75;100895.47;4962777;28;1525;-93
2022/07/30 12:40:53;;;;;;;;;;;;;;;19.24;65.02;100892.19;4980776;28;1334;-94
2022/07/30 12:43:19;;;;;;;;;;;;;;;19.24;65.24;100898.47;4964103;28;1793;-94
2022/07/30 12:45:48;;;;;;;;;;;;;;;19.26;64.82;100881.81;4973526;28;1293;-94
2022/07/30 12:48:15;;;;;;;;;;;;;;;19.28;65.18;100896.00;4970867;28;1488;-93
2022/07/30 12:50:41;;;;;;;;;;;;;;;19.28;65.32;100893.28;4952388;28;1387;-92
2022/07/30 12:53:08;;;;;;;;;;;;;;;19.29;65.22;100886.72;4967043;28;1975;-94
2022/07/30 12:55:34;;;;;;;;;;;;;;;19.31;65.30;100889.19;4965787;28;1258;-93
2022/07/30 12:58:01;;;;;;;;;;;;;;;19.33;65.16;100885.13;4962771;28;1366;-92
2022/07/30 13:00:27;;;;;;;;;;;;;;;19.34;65.09;100870.34;4953857;29;1686;-94
2022/07/30 13:02:54;;;;;;;;;;;;;;;19.33;65.40;100868.72;4961793;28;1145;-94
2022/07/30 13:05:20;;;;;;;;;;;;;;;19.34;65.22;100866.81;4971309;28;1519;-94
2022/07/30 13:07:46;;;;;;;;;;;;;;;19.34;65.35;100867.63;4969654;28;1460;-94
2022/07/30 13:10:17;;;;;;;;;;;;;;;19.39;65.26;100877.75;4965108;28;1374;-91
2022/07/30 13:12:43;;;;;;;;;;;;;;;19.39;65.57;100867.66;4980976;28;1911;-94
2022/07/30 13:15:10;;;;;;;;;;;;;;;19.39;65.15;100867.66;4983230;28;2408;-94
2022/07/30 13:17:36;;;;;;;;;;;;;;;19.41;65.36;100865.47;4964103;28;1761;-92
2022/07/30 13:20:03;;;;;;;;;;;;;;;19.44;65.48;100867.66;4967476;28;1174;-93
2022/07/30 13:22:29;;;;;;;;;;;;;;;19.45;65.33;100860.28;4971555;28;1864;-95
2022/07/30 13:24:56;;;;;;;;;;;;;;;19.44;65.27;100851.28;4966141;28;1278;-93
2022/07/30 13:27:22;;;;;;;;;;;;;;;19.46;65.48;100850.97;4967194;28;1178;-93
2022/07/30 13:29:49;;;;;;;;;;;;;;;19.46;65.55;100843.59;4969660;28;1305;-94
2022/07/30 13:32:15;;;;;;;;;;;;;;;19.46;65.70;100849.06;4971833;28;1915;-93
2022/07/30 13:34:42;;;;;;;;;;;;;;;19.48;65.69;100838.69;4968074;28;1971;-93
2022/07/30 13:37:09;;;;;;;;;;;;;;;19.51;65.46;100840.88;4954625;29;1600;-94
2022/07/30 13:39:36;;;;;;;;;;;;;;;19.51;65.48;100848.28;4951995;29;1316;-94
2022/07/30 13:42:02;;;;;;;;;;;;;;;19.54;65.63;100839.53;4963093;28;1537;-94
2022/07/30 13:44:29;;;;;;;;;;;;;;;19.56;65.45;100845.53;4972890;28;1281;-95
2022/07/30 13:46:57;;;;;;;;;;;;;;;19.57;65.28;100840.91;4970177;28;1665;-91
2022/07/30 13:49:27;;;;;;;;;;;;;;;19.59;65.35;100835.97;4981618;28;1602;-95
2022/07/30 13:51:54;;;;;;;;;;;;;;;19.58;65.40;100829.69;4973970;28;1891;-93
2022/07/30 13:57:19;;;;;;;;;;;;;;;19.59;65.51;100827.75;4976326;28;1726;-95
2022/07/30 13:59:47;;;;;;;;;;;;;;;19.58;65.54;100829.69;4973947;28;1141;-93
2022/07/30 14:02:14;;;;;;;;;;;;;;;19.63;65.79;100832.41;4971349;28;1750;-92
2022/07/30 14:04:40;;;;;;;;;;;;;;;19.66;65.44;100826.44;4965267;28;1964;-93
2022/07/30 14:07:07;;;;;;;;;;;;;;;19.69;65.63;100828.63;4954638;28;1652;-91
2022/07/30 14:09:33;;;;;;;;;;;;;;;19.72;65.25;100819.06;4958074;28;1580;-94
2022/07/30 14:11:59;;;;;;;;;;;;;;;19.70;65.17;100822.06;4959564;28;1887;-94
2022/07/30 14:14:26;;;;;;;;;;;;;;;19.73;65.41;100826.16;4963736;28;1224;-91
2022/07/30 14:16:53;;;;;;;;;;;;;;;19.76;65.54;100828.34;4963953;28;1658;-94
2022/07/30 14:19:19;;;;;;;;;;;;;;;19.76;65.71;100824.78;4943409;28;1741;-93
2022/07/30 14:21:46;;;;;;;;;;;;;;;19.77;65.31;100824.53;4947111;29;1644;-94
2022/07/30 14:24:14;;;;;;;;;;;;;;;19.78;65.61;100822.63;4965647;28;1663;-94
2022/07/30 14:26:41;;;;;;;;;;;;;;;19.79;65.45;100825.06;4961909;28;1350;-92
2022/07/30 14:29:07;;;;;;;;;;;;;;;19.82;65.46;100829.16;4955258;28;1813;-93
2022/07/30 14:31:34;;;;;;;;;;;;;;;19.83;65.37;100812.50;4975262;28;1976;-95
2022/07/30 14:34:00;;;;;;;;;;;;;;;19.86;65.55;100813.88;4969305;28;1483;-94
2022/07/30 14:36:29;;;;;;;;;;;;;;;19.86;65.25;100811.94;4971567;28;1654;-92
2022/07/30 14:38:55;;;;;;;;;;;;;;;19.88;65.48;100807.03;4959186;28;1863;-92
2022/07/30 14:41:21;;;;;;;;;;;;;;;19.89;65.26;100808.66;4957306;28;1555;-93
2022/07/30 14:43:48;;;;;;;;;;;;;;;19.88;65.46;100803.47;4965461;28;1313;-96
2022/07/30 14:46:15;;;;;;;;;;;;;;;19.88;65.42;100800.72;4965519;28;1679;-95
2022/07/30 14:48:42;;;;;;;;;;;;;;;19.90;65.71;100801.28;4958451;28;1629;-95
2022/07/30 14:51:09;;;;;;;;;;;;;;;19.91;65.53;100800.16;4964453;28;1486;-94
2022/07/30 14:53:35;;;;;;;;;;;;;;;19.92;65.34;100799.91;4961635;28;1903;-94
2022/07/30 14:56:02;;;;;;;;;;;;;;;19.94;65.38;100799.63;4961487;28;1349;-94
2022/07/30 14:58:28;;;;;;;;;;;;;;;19.95;65.30;100809.47;4963436;28;1816;-92
2022/07/30 15:00:54;;;;;;;;;;;;;;;19.98;65.56;100800.72;4956201;29;1270;-94
2022/07/30 15:03:21;;;;;;;;;;;;;;;19.98;65.27;100794.44;4947395;29;1334;-95
2022/07/30 15:05:47;;;;;;;;;;;;;;;19.97;65.71;100793.59;4944008;28;1436;-94
2022/07/30 15:08:14;;;;;;;;;;;;;;;19.98;65.72;100802.66;4960250;28;1951;-94
2022/07/30 15:13:15;;;;;;;;;;;;;;;20.01;65.27;100794.69;4925932;29;1891;-94
2022/07/30 15:15:41;;;;;;;;;;;;;;;20.05;65.59;100797.69;4916723;29;1707;-92
2022/07/30 15:18:09;;;;;;;;;;;;;;;20.08;65.53;100794.41;5030013;23;3666;-94
2022/07/30 15:20:37;;;;;;;;;;;;;;;20.07;65.46;100792.78;4960853;29;1415;-95
2022/07/30 15:25:51;;;;;;;;;;;;;;;20.08;65.54;100773.34;4932101;29;1372;-94
2022/07/30 15:28:19;;;;;;;;;;;;;;;20.09;65.62;100775.00;4957555;29;1096;-95
2022/07/30 15:30:51;;;;;;;;;;;;;;;20.11;65.37;100780.19;4960859;29;1278;-95
2022/07/30 15:36:17;;;;;;;;;;;;;;;20.11;65.23;100770.06;4911296;29;1711;-92
2022/07/30 15:38:45;;;;;;;;;;;;;;;20.13;65.20;100776.06;4919511;29;1278;-93
2022/07/30 15:41:11;;;;;;;;;;;;;;;20.17;65.27;100770.88;4911276;29;1759;-95
2022/07/30 15:43:38;;;;;;;;;;;;;;;20.18;65.21;100765.13;4895878;29;1737;-92
2022/07/30 15:54:21;;;;;;;;;;;;;;;20.23;65.46;100763.47;4933866;29;1380;-95
2022/07/30 15:56:59;;;;;;;;;;;;;;;20.24;65.34;100754.19;5036448;23;3685;-94
2022/07/30 16:13:36;;;;;;;;;;;;;;;20.28;65.55;100756.06;4974513;28;1932;-96
2022/07/30 16:16:02;;;;;;;;;;;;;;;20.29;65.21;100765.09;4954504;29;1350;-93
2022/07/30 16:18:31;;;;;;;;;;;;;;;20.31;65.54;100754.69;4967646;29;1295;-95
2022/07/30 16:21:01;;;;;;;;;;;;;;;20.32;65.07;100762.59;4964028;29;1950;-93
2022/07/30 16:23:27;;;;;;;;;;;;;;;20.34;65.32;100763.16;4944678;29;1482;-92
2022/07/30 16:25:53;;;;;;;;;;;;;;;20.35;65.21;100763.97;4958837;29;1173;-92
2022/07/30 16:28:20;;;;;;;;;;;;;;;20.35;65.33;100762.06;4958850;28;1299;-90
2022/07/30 16:30:46;;;;;;;;;;;;;;;20.37;65.37;100759.03;4943676;29;2786;-94
2022/07/30 16:36:02;;;;;;;;;;;;;;;20.37;65.22;100762.59;5056475;23;3767;-95
2022/07/30 16:38:28;;;;;;;;;;;;;;;20.36;65.39;100769.16;5156299;23;3877;-93
2022/07/30 16:51:55;;;;;;;;;;;;;;;20.40;65.05;100766.69;5020219;23;1856;-93
2022/07/30 16:54:22;;;;;;;;;;;;;;;20.41;65.16;100755.47;4951581;29;1783;-96
2022/07/30 16:56:51;;;;;;;;;;;;;;;20.41;65.06;100763.69;4940106;29;1305;-93
2022/07/30 16:59:18;;;;;;;;;;;;;;;20.41;65.04;100763.69;4938060;28;1202;-93
2022/07/30 17:01:46;;;;;;;;;;;;;;;20.43;64.75;100771.59;4935344;29;1206;-93
2022/07/30 17:04:14;;;;;;;;;;;;;;;20.42;64.83;100757.09;5111647;23;3838;-94
2022/07/30 17:14:51;;;;;;;;;;;;;;;20.42;64.32;100740.69;5302906;23;3530;-94
2022/07/30 17:17:18;;;;;;;;;;;;;;;20.41;64.21;100739.06;5383489;23;3830;-94
2022/07/30 17:28:25;;;;;;;;;;;;;;;20.42;64.29;100739.88;5597512;23;3646;-94
2022/07/30 17:36:15;;;;;;;;;;;;;;;20.43;64.36;100746.97;5569242;23;2885;-93
2022/07/30 17:38:42;;;;;;;;;;;;;;;20.42;64.07;100735.22;4960796;28;1993;-92
2022/07/30 17:41:08;;;;;;;;;;;;;;;20.42;64.14;100732.47;4967299;28;1870;-93
2022/07/30 17:43:50;;;;;;;;;;;;;;;20.42;63.93;100731.66;4956026;28;1486;-95
2022/07/30 18:00:01;;;;;;;;;;;;;;;20.42;64.14;100728.94;4968863;28;1455;-93
2022/07/30 18:02:27;;;;;;;;;;;;;;;20.42;64.25;100724.28;4959215;28;1649;-94
2022/07/30 18:04:54;;;;;;;;;;;;;;;20.43;63.93;100738.75;4961292;28;1780;-94
2022/07/30 18:07:20;;;;;;;;;;;;;;;20.41;64.36;100728.13;4959846;28;1605;-95
2022/07/30 18:09:47;;;;;;;;;;;;;;;20.42;63.95;100729.75;4963577;29;1425;-94
2022/07/30 18:12:13;;;;;;;;;;;;;;;20.42;63.93;100737.13;4969766;28;1895;-92
2022/07/30 18:14:41;;;;;;;;;;;;;;;20.42;64.19;100734.41;4966226;29;1757;-95
2022/07/30 18:17:14;;;;;;;;;;;;;;;20.42;63.78;100729.75;4972935;28;1471;-93
2022/07/30 18:19:40;;;;;;;;;;;;;;;20.41;64.20;100725.38;4955734;28;1711;-93
2022/07/30 18:22:07;;;;;;;;;;;;;;;20.41;64.08;100725.38;4970432;28;1752;-94
2022/07/30 18:24:34;;;;;;;;;;;;;;;20.41;64.02;100728.13;4969133;29;1610;-96
2022/07/30 18:27:02;;;;;;;;;;;;;;;20.41;64.07;100722.66;4960472;28;1565;-95
2022/07/30 18:29:28;;;;;;;;;;;;;;;20.40;64.03;100723.72;4973358;29;1166;-93
2022/07/30 18:32:05;;;;;;;;;;;;;;;20.40;63.97;100726.47;4967823;28;1786;-94
2022/07/30 18:43:13;;;;;;;;;;;;;;;20.40;64.00;100723.72;4977761;28;626;-94
2022/07/30 18:45:49;;;;;;;;;;;;;;;20.39;64.20;100724.84;4968965;28;1792;-95
2022/07/30 18:48:32;;;;;;;;;;;;;;;20.39;64.36;100727.56;4980680;28;825;-96
2022/07/30 18:51:10;;;;;;;;;;;;;;;20.39;64.34;100724.84;4984357;28;1714;-95
2022/07/30 18:53:36;;;;;;;;;;;;;;;20.39;64.50;100724.03;4993586;28;1887;-95
2022/07/30 18:58:45;;;;;;;;;;;;;;;20.38;64.14;100733.31;4939988;29;1734;-94
2022/07/30 19:01:11;;;;;;;;;;;;;;;20.37;64.08;100728.94;4941587;29;1742;-94
2022/07/30 19:03:41;;;;;;;;;;;;;;;20.37;64.39;100729.75;4953961;29;1691;-94
2022/07/30 19:17:14;;;;;;;;;;;;;;;20.35;64.55;100722.94;4938335;29;1179;-95
2022/07/30 19:19:42;;;;;;;;;;;;;;;20.35;64.25;100723.78;4944956;29;1654;-95
2022/07/30 19:25:07;;;;;;;;;;;;;;;20.35;64.55;100731.13;4959845;29;1063;-95
2022/07/30 19:33:20;;;;;;;;;;;;;;;20.32;64.56;100731.69;4956099;29;1906;-94
2022/07/30 19:35:54;;;;;;;;;;;;;;;20.32;64.48;100724.31;4961192;29;1454;-95
2022/07/30 19:38:49;;;;;;;;;;;;;;;20.32;64.45;100728.97;4960364;29;708;-96
2022/07/30 19:41:19;;;;;;;;;;;;;;;20.31;64.51;100733.63;4955113;29;1382;-95
2022/07/30 19:43:49;;;;;;;;;;;;;;;20.30;64.46;100729.25;4959682;29;920;-95
2022/07/30 19:51:55;;;;;;;;;;;;;;;20.29;64.28;100716.66;5494805;23;3069;-95
